createdAt,value
2019-02-25T00:01:10.898Z,33.67
2019-02-25T00:03:46.076Z,31.87
2019-02-25T00:06:14.751Z,35.96
2019-02-25T00:08:43.407Z,32.60
2019-02-25T00:11:12.077Z,33.97
2019-02-25T00:13:40.807Z,32.89
2019-02-25T00:16:10.182Z,33.85
2019-02-25T00:18:38.957Z,35.10
2019-02-25T00:21:07.683Z,35.45
2019-02-25T00:23:36.683Z,33.78
2019-02-25T00:26:05.340Z,32.68
2019-02-25T00:28:34.047Z,33.60
2019-02-25T00:31:02.706Z,35.04
2019-02-25T00:33:31.947Z,33.79
2019-02-25T00:36:00.621Z,32.87
2019-02-25T00:38:29.933Z,32.04
2019-02-25T00:40:58.873Z,33.31
2019-02-25T00:43:27.811Z,32.66
2019-02-25T00:45:56.804Z,32.06
2019-02-25T00:48:26.003Z,31.65
2019-02-25T00:50:54.906Z,31.70
2019-02-25T00:53:23.899Z,31.88
2019-02-25T00:55:53.086Z,31.65
2019-02-25T00:58:22.073Z,31.44
2019-02-25T01:00:50.729Z,31.17
2019-02-25T01:03:19.556Z,31.42
2019-02-25T01:05:48.648Z,31.76
2019-02-25T01:08:17.313Z,31.76
2019-02-25T01:10:46.376Z,31.06
2019-02-25T01:13:15.313Z,31.06
2019-02-25T01:15:44.721Z,30.68
2019-02-25T01:18:13.898Z,33.93
2019-02-25T01:20:42.564Z,33.59
2019-02-25T01:23:11.494Z,34.29
2019-02-25T01:25:40.162Z,35.74
2019-02-25T01:28:09.487Z,36.15
2019-02-25T01:30:38.670Z,36.56
2019-02-25T01:33:07.453Z,38.14
2019-02-25T01:35:37.479Z,38.67
2019-02-25T01:38:06.307Z,41.05
2019-02-25T01:40:34.977Z,39.00
2019-02-25T01:43:03.714Z,39.64
2019-02-25T01:45:32.392Z,39.15
2019-02-25T01:48:01.590Z,39.26
2019-02-25T01:50:30.277Z,38.17
2019-02-25T01:52:59.204Z,37.82
2019-02-25T01:55:27.859Z,37.37
2019-02-25T01:57:56.511Z,39.54
2019-02-25T02:00:25.250Z,40.41
2019-02-25T02:02:54.150Z,39.04
2019-02-25T02:05:24.562Z,38.82
2019-02-25T02:07:53.281Z,40.48
2019-02-25T02:10:22.022Z,39.46
2019-02-25T02:12:50.663Z,39.08
2019-02-25T02:15:19.511Z,38.59
2019-02-25T02:17:48.200Z,39.11
2019-02-25T02:20:17.117Z,39.74
2019-02-25T02:22:45.756Z,40.77
2019-02-25T02:25:14.795Z,40.00
2019-02-25T02:27:45.191Z,39.32
2019-02-25T02:30:16.080Z,38.97
2019-02-25T02:32:45.060Z,39.23
2019-02-25T02:35:13.727Z,39.97
2019-02-25T02:37:42.526Z,39.18
2019-02-25T02:40:11.354Z,39.13
2019-02-25T02:42:41.319Z,38.33
2019-02-25T02:45:17.109Z,39.07
2019-02-25T02:47:58.652Z,38.44
2019-02-25T02:50:27.399Z,37.63
2019-02-25T02:52:56.846Z,37.50
2019-02-25T02:55:25.493Z,37.60
2019-02-25T02:57:54.825Z,40.08
2019-02-25T03:00:23.813Z,40.13
2019-02-25T03:02:52.820Z,41.45
2019-02-25T03:05:21.501Z,41.14
2019-02-25T03:07:50.484Z,41.41
2019-02-25T03:10:19.546Z,42.25
2019-02-25T03:12:51.050Z,40.97
2019-02-25T03:15:21.327Z,38.22
2019-02-25T03:17:50.367Z,38.32
2019-02-25T03:20:19.174Z,38.42
2019-02-25T03:22:47.881Z,38.51
2019-02-25T03:25:17.713Z,38.34
2019-02-25T03:27:46.731Z,38.44
2019-02-25T03:30:17.695Z,38.99
2019-02-25T03:32:46.872Z,38.58
2019-02-25T03:35:15.608Z,37.59
2019-02-25T03:37:44.653Z,38.03
2019-02-25T03:40:15.412Z,38.09
2019-02-25T03:42:44.447Z,37.83
2019-02-25T03:45:14.821Z,37.43
2019-02-25T03:47:43.831Z,37.68
2019-02-25T03:50:12.901Z,37.53
2019-02-25T03:52:41.832Z,37.89
2019-02-25T03:55:12.802Z,37.31
2019-02-25T03:57:41.879Z,36.60
2019-02-25T04:00:16.619Z,36.00
2019-02-25T04:02:45.407Z,35.46
2019-02-25T04:05:14.483Z,35.17
2019-02-25T04:07:43.308Z,35.79
2019-02-25T04:10:12.387Z,35.35
2019-02-25T04:12:41.458Z,35.55
2019-02-25T04:15:12.543Z,36.04
2019-02-25T04:17:41.599Z,37.67
2019-02-25T04:20:12.385Z,38.59
2019-02-25T04:22:41.358Z,39.05
2019-02-25T04:25:10.417Z,38.98
2019-02-25T04:27:39.411Z,37.86
2019-02-25T04:30:10.787Z,37.94
2019-02-25T04:32:39.750Z,38.00
2019-02-25T04:35:09.469Z,38.53
2019-02-25T04:37:38.239Z,38.39
2019-02-25T04:40:08.334Z,38.32
2019-02-25T04:42:37.585Z,38.86
2019-02-25T04:45:08.753Z,39.11
2019-02-25T04:47:37.709Z,39.53
2019-02-25T04:50:07.521Z,39.76
2019-02-25T04:52:36.514Z,39.87
2019-02-25T04:55:05.708Z,41.33
2019-02-25T04:57:34.365Z,42.21
2019-02-25T05:00:03.417Z,44.08
2019-02-25T05:02:32.078Z,43.63
2019-02-25T05:05:00.863Z,42.87
2019-02-25T05:07:29.748Z,43.14
2019-02-25T05:09:58.421Z,43.38
2019-02-25T05:12:28.038Z,42.97
2019-02-25T05:14:57.031Z,44.11
2019-02-25T05:17:25.703Z,45.39
2019-02-25T05:19:54.356Z,45.35
2019-02-25T05:22:23.361Z,46.28
2019-02-25T05:24:52.013Z,45.84
2019-02-25T05:27:20.692Z,46.86
2019-02-25T05:29:51.780Z,46.96
2019-02-25T05:32:20.438Z,46.83
2019-02-25T05:34:49.093Z,46.08
2019-02-25T05:37:17.792Z,46.00
2019-02-25T05:39:46.690Z,45.76
2019-02-25T05:42:15.368Z,45.50
2019-02-25T05:44:44.540Z,45.71
2019-02-25T05:47:13.520Z,44.72
2019-02-25T05:49:42.428Z,43.74
2019-02-25T05:52:11.819Z,43.55
2019-02-25T05:54:40.742Z,45.46
2019-02-25T05:57:09.716Z,45.87
2019-02-25T05:59:38.391Z,44.91
2019-02-25T06:02:07.077Z,45.15
2019-02-25T06:04:36.210Z,45.42
2019-02-25T06:07:05.478Z,44.98
2019-02-25T06:09:35.717Z,45.45
2019-02-25T06:12:04.794Z,46.14
2019-02-25T06:14:33.781Z,44.28
2019-02-25T06:17:02.705Z,43.45
2019-02-25T06:19:31.965Z,43.51
2019-02-25T06:22:00.646Z,44.28
2019-02-25T06:24:30.090Z,45.03
2019-02-25T06:26:59.029Z,44.48
2019-02-25T06:29:27.927Z,47.10
2019-02-25T06:31:56.647Z,46.44
2019-02-25T06:34:25.573Z,46.44
2019-02-25T06:36:54.515Z,44.69
2019-02-25T06:39:23.769Z,45.24
2019-02-25T06:41:52.658Z,46.55
2019-02-25T06:44:21.811Z,47.24
2019-02-25T06:46:50.542Z,46.92
2019-02-25T06:49:19.921Z,45.71
2019-02-25T06:51:48.609Z,46.44
2019-02-25T06:54:17.279Z,47.55
2019-02-25T06:56:46.611Z,46.59
2019-02-25T06:59:15.546Z,44.80
2019-02-25T07:01:44.475Z,43.43
2019-02-25T07:04:50.760Z,42.94
2019-02-25T07:07:25.754Z,43.38
2019-02-25T07:10:13.732Z,43.30
2019-02-25T07:12:49.905Z,42.92
2019-02-25T07:15:43.674Z,43.55
2019-02-25T07:18:23.163Z,44.97
2019-02-25T07:21:01.696Z,46.67
2019-02-25T07:23:54.669Z,47.03
2019-02-25T07:26:30.271Z,45.94
2019-02-25T07:29:08.892Z,43.84
2019-02-25T07:31:56.842Z,42.10
2019-02-25T07:34:34.050Z,41.06
2019-02-25T07:37:20.280Z,40.98
2019-02-25T07:40:06.768Z,40.92
2019-02-25T07:42:53.179Z,41.97
2019-02-25T07:45:37.297Z,42.95
2019-02-25T07:48:11.409Z,43.68
2019-02-25T07:50:48.076Z,42.03
2019-02-25T07:53:23.154Z,40.40
2019-02-25T07:56:05.112Z,40.13
2019-02-25T07:58:42.719Z,40.66
2019-02-25T08:01:29.132Z,40.83
2019-02-25T08:04:20.434Z,45.03
2019-02-25T08:07:08.401Z,42.55
2019-02-25T08:10:03.022Z,41.08
2019-02-25T08:12:38.490Z,42.49
2019-02-25T08:15:17.631Z,43.82
2019-02-25T08:18:08.704Z,42.85
2019-02-25T08:21:06.071Z,42.95
2019-02-25T08:23:55.084Z,43.80
2019-02-25T08:26:45.546Z,40.39
2019-02-25T08:29:26.826Z,41.04
2019-02-25T08:32:21.820Z,42.58
2019-02-25T08:35:11.369Z,41.46
2019-02-25T08:38:05.724Z,42.28
2019-02-25T08:41:05.701Z,39.83
2019-02-25T08:43:44.724Z,39.10
2019-02-25T08:46:24.464Z,39.55
2019-02-25T08:49:15.098Z,40.84
2019-02-25T08:51:44.194Z,41.57
2019-02-25T08:54:12.998Z,39.33
2019-02-25T08:56:41.974Z,39.74
2019-02-25T08:59:13.717Z,37.73
2019-02-25T09:01:42.690Z,38.18
2019-02-25T09:04:11.353Z,37.20
2019-02-25T09:06:40.310Z,37.81
2019-02-25T09:09:09.362Z,37.92
2019-02-25T09:11:38.170Z,36.70
2019-02-25T09:14:07.143Z,39.11
2019-02-25T09:16:36.153Z,39.78
2019-02-25T09:19:05.138Z,39.90
2019-02-25T09:21:34.129Z,38.31
2019-02-25T09:24:03.045Z,39.53
2019-02-25T09:26:32.415Z,40.33
2019-02-25T09:29:01.716Z,40.57
2019-02-25T09:31:30.401Z,40.84
2019-02-25T09:33:59.393Z,42.03
2019-02-25T09:36:28.051Z,39.51
2019-02-25T09:38:56.917Z,41.12
2019-02-25T09:41:29.851Z,40.70
2019-02-25T09:43:56.997Z,41.36
2019-02-25T09:46:25.671Z,42.26
2019-02-25T09:48:54.413Z,38.84
2019-02-25T09:51:23.366Z,37.84
2019-02-25T09:53:52.325Z,38.51
2019-02-25T09:56:21.002Z,37.64
2019-02-25T09:58:51.929Z,39.09
2019-02-25T10:01:20.348Z,38.90
2019-02-25T10:03:49.003Z,38.77
2019-02-25T10:06:17.679Z,39.14
2019-02-25T10:08:46.657Z,38.46
2019-02-25T10:11:15.328Z,36.30
2019-02-25T10:13:43.991Z,37.03
2019-02-25T10:16:12.673Z,38.42
2019-02-25T10:18:41.579Z,39.48
2019-02-25T10:21:10.321Z,38.65
2019-02-25T10:23:40.511Z,35.93
2019-02-25T10:26:09.570Z,35.93
2019-02-25T10:28:38.235Z,35.59
2019-02-25T10:31:06.897Z,36.09
2019-02-25T10:33:35.781Z,36.64
2019-02-25T10:36:04.764Z,35.81
2019-02-25T10:38:33.918Z,33.17
2019-02-25T10:41:02.612Z,36.83
2019-02-25T10:43:33.902Z,35.64
2019-02-25T10:46:02.454Z,34.81
2019-02-25T10:48:31.143Z,34.29
2019-02-25T10:50:59.813Z,35.72
2019-02-25T10:53:28.515Z,35.64
2019-02-25T10:56:08.603Z,37.19
2019-02-25T10:58:37.631Z,36.16
2019-02-25T11:01:08.455Z,37.64
2019-02-25T11:03:37.104Z,36.62
2019-02-25T11:06:05.951Z,36.30
2019-02-25T11:08:35.289Z,34.40
2019-02-25T11:11:13.052Z,31.89
2019-02-25T11:13:41.723Z,34.20
2019-02-25T11:16:11.971Z,33.63
2019-02-25T11:18:41.337Z,33.69
2019-02-25T11:21:10.674Z,33.39
2019-02-25T11:23:39.971Z,33.45
2019-02-25T11:26:09.771Z,32.70
2019-02-25T11:28:40.733Z,31.60
2019-02-25T11:31:11.488Z,29.16
2019-02-25T11:33:40.146Z,28.40
2019-02-25T11:36:10.448Z,27.72
2019-02-25T11:38:41.680Z,26.84
2019-02-25T11:41:11.320Z,26.37
2019-02-25T11:43:40.591Z,28.13
2019-02-25T11:46:10.060Z,31.08
2019-02-25T11:48:38.756Z,28.71
2019-02-25T11:51:07.747Z,31.38
2019-02-25T11:53:36.450Z,30.47
2019-02-25T11:56:05.376Z,31.23
2019-02-25T11:58:34.596Z,31.21
2019-02-25T12:01:04.317Z,30.03
2019-02-25T12:03:33.072Z,29.63
2019-02-25T12:06:01.743Z,30.08
2019-02-25T12:08:30.743Z,29.65
2019-02-25T12:10:59.669Z,29.48
2019-02-25T12:13:28.893Z,29.75
2019-02-25T12:15:57.585Z,29.54
2019-02-25T12:18:26.758Z,29.48
2019-02-25T12:20:55.432Z,29.35
2019-02-25T12:23:24.457Z,29.89
2019-02-25T12:25:53.427Z,29.78
2019-02-25T12:28:22.124Z,29.60
2019-02-25T12:30:50.803Z,28.79
2019-02-25T12:33:19.805Z,29.97
2019-02-25T12:35:49.005Z,29.96
2019-02-25T12:38:17.705Z,29.75
2019-02-25T12:40:46.871Z,30.37
2019-02-25T12:43:15.640Z,28.77
2019-02-25T12:45:44.328Z,30.20
2019-02-25T12:48:13.044Z,29.67
2019-02-25T12:50:41.985Z,30.24
2019-02-25T12:53:10.733Z,31.02
2019-02-25T12:55:39.391Z,31.93
2019-02-25T12:58:08.372Z,32.61
2019-02-25T13:00:37.023Z,32.37
2019-02-25T13:03:05.774Z,30.79
2019-02-25T13:05:34.659Z,30.84
2019-02-25T13:08:03.636Z,30.76
2019-02-25T13:10:32.605Z,29.48
2019-02-25T13:13:01.764Z,30.76
2019-02-25T13:15:30.419Z,33.27
2019-02-25T13:18:00.185Z,34.30
2019-02-25T13:20:29.189Z,32.78
2019-02-25T13:22:58.101Z,34.02
2019-02-25T13:25:26.868Z,33.00
2019-02-25T13:27:56.934Z,34.04
2019-02-25T13:30:25.937Z,31.87
2019-02-25T13:32:54.888Z,32.64
2019-02-25T13:35:23.535Z,33.57
2019-02-25T13:37:52.445Z,33.77
2019-02-25T13:40:21.172Z,33.36
2019-02-25T13:42:50.620Z,32.64
2019-02-25T13:45:19.372Z,32.82
2019-02-25T13:47:48.094Z,33.73
2019-02-25T13:50:16.898Z,31.53
2019-02-25T13:52:48.489Z,30.04
2019-02-25T13:55:16.514Z,30.11
2019-02-25T13:57:45.344Z,31.87
2019-02-25T14:00:16.737Z,33.43
2019-02-25T14:02:46.070Z,30.74
2019-02-25T14:05:15.491Z,31.54
2019-02-25T14:07:44.537Z,30.40
2019-02-25T14:10:13.264Z,30.50
2019-02-25T14:12:42.231Z,31.45
2019-02-25T14:15:12.506Z,32.53
2019-02-25T14:17:41.265Z,31.33
2019-02-25T14:20:12.812Z,31.64
2019-02-25T14:22:41.765Z,30.70
2019-02-25T14:25:12.540Z,29.45
2019-02-25T14:27:41.453Z,29.18
2019-02-25T14:30:13.852Z,30.01
2019-02-25T14:32:42.903Z,30.10
2019-02-25T14:35:11.950Z,30.00
2019-02-25T14:37:40.915Z,30.70
2019-02-25T14:40:14.528Z,30.84
2019-02-25T14:42:44.601Z,30.66
2019-02-25T14:45:14.742Z,31.39
2019-02-25T14:47:44.528Z,30.08
2019-02-25T14:50:15.916Z,31.04
2019-02-25T14:52:44.935Z,30.46
2019-02-25T14:55:14.945Z,30.33
2019-02-25T14:57:44.485Z,30.96
2019-02-25T15:00:17.292Z,30.96
2019-02-25T15:02:48.032Z,30.61
2019-02-25T15:05:17.301Z,30.61
2019-02-25T15:07:48.715Z,31.15
2019-02-25T15:10:18.241Z,30.55
2019-02-25T15:12:47.029Z,31.02
2019-02-25T15:15:16.559Z,31.66
2019-02-25T15:17:46.115Z,31.67
2019-02-25T15:20:16.938Z,31.93
2019-02-25T15:22:47.023Z,31.82
2019-02-25T15:25:16.494Z,32.11
2019-02-25T15:27:45.759Z,32.63
2019-02-25T15:30:18.602Z,32.71
2019-02-25T15:32:55.545Z,32.88
2019-02-25T15:35:18.700Z,33.40
2019-02-25T15:37:48.541Z,33.34
2019-02-25T15:40:20.420Z,33.71
2019-02-25T15:43:05.911Z,33.49
2019-02-25T15:45:38.301Z,33.19
2019-02-25T15:48:13.026Z,32.59
2019-02-25T15:50:44.089Z,32.08
2019-02-25T15:53:15.949Z,32.21
2019-02-25T15:55:43.733Z,31.93
2019-02-25T15:58:13.129Z,32.48
2019-02-25T16:00:42.220Z,32.35
2019-02-25T16:03:11.689Z,32.77
2019-02-25T16:05:41.797Z,33.22
2019-02-25T16:08:16.207Z,32.99
2019-02-25T16:10:43.122Z,32.35
2019-02-25T16:13:14.285Z,31.96
2019-02-25T16:15:42.740Z,32.28
2019-02-25T16:18:13.596Z,31.84
2019-02-25T16:20:45.919Z,31.97
2019-02-25T16:23:13.300Z,30.96
2019-02-25T16:25:52.632Z,31.01
2019-02-25T16:28:21.425Z,31.34
2019-02-25T16:30:51.337Z,31.94
2019-02-25T16:33:23.754Z,32.46
2019-02-25T16:35:52.888Z,32.96
2019-02-25T16:38:23.454Z,33.06
2019-02-25T16:40:54.644Z,33.02
2019-02-25T16:43:22.595Z,33.30
2019-02-25T16:45:51.850Z,33.56
2019-02-25T16:48:24.218Z,33.68
2019-02-25T16:50:51.513Z,33.84
2019-02-25T16:53:20.525Z,33.90
2019-02-25T16:55:51.392Z,34.33
2019-02-25T16:58:20.221Z,34.68
2019-02-25T17:00:49.008Z,35.08
2019-02-25T17:03:18.344Z,34.96
2019-02-25T17:05:48.539Z,34.72
2019-02-25T17:08:21.355Z,34.57
2019-02-25T17:10:51.812Z,34.40
2019-02-25T17:13:20.748Z,34.71
2019-02-25T17:15:49.420Z,34.95
2019-02-25T17:18:18.112Z,34.79
2019-02-25T17:20:49.714Z,35.16
2019-02-25T17:23:18.176Z,35.28
2019-02-25T17:25:47.113Z,35.21
2019-02-25T17:28:17.542Z,35.53
2019-02-25T17:30:47.472Z,36.13
2019-02-25T17:33:17.513Z,37.15
2019-02-25T17:35:47.588Z,39.24
2019-02-25T17:38:18.198Z,39.86
2019-02-25T17:40:47.375Z,38.70
2019-02-25T17:43:17.459Z,38.31
2019-02-25T17:45:46.508Z,39.03
2019-02-25T17:48:16.221Z,39.72
2019-02-25T17:50:45.981Z,40.02
2019-02-25T17:53:14.900Z,40.24
2019-02-25T17:55:43.843Z,40.36
2019-02-25T17:58:13.505Z,40.27
2019-02-25T18:00:43.905Z,40.32
2019-02-25T18:03:12.736Z,40.96
2019-02-25T18:05:43.200Z,40.93
2019-02-25T18:08:13.304Z,40.73
2019-02-25T18:10:43.641Z,40.34
2019-02-25T18:13:13.169Z,40.66
2019-02-25T18:15:42.640Z,41.23
2019-02-25T18:18:14.534Z,40.19
2019-02-25T18:20:42.635Z,41.38
2019-02-25T18:23:11.577Z,40.95
2019-02-25T18:25:40.625Z,40.95
2019-02-25T18:28:10.869Z,41.61
2019-02-25T18:30:40.382Z,40.10
2019-02-25T18:33:10.064Z,41.07
2019-02-25T18:35:41.226Z,40.66
2019-02-25T18:38:09.753Z,38.44
2019-02-25T18:40:40.673Z,38.29
2019-02-25T18:43:09.355Z,38.29
2019-02-25T18:45:40.261Z,37.44
2019-02-25T18:48:09.341Z,38.51
2019-02-25T18:50:39.384Z,38.65
2019-02-25T18:53:08.628Z,38.06
2019-02-25T18:55:37.561Z,38.06
2019-02-25T18:58:09.624Z,36.76
2019-02-25T19:00:41.897Z,36.76
2019-02-25T19:03:09.610Z,37.67
2019-02-25T19:05:38.552Z,37.28
2019-02-25T19:08:14.933Z,36.17
2019-02-25T19:10:46.123Z,36.17
2019-02-25T19:13:15.986Z,35.90
2019-02-25T19:15:45.904Z,35.91
2019-02-25T19:18:17.139Z,36.11
2019-02-25T19:20:46.264Z,36.08
2019-02-25T19:23:16.588Z,36.08
2019-02-25T19:25:46.686Z,35.95
2019-02-25T19:28:18.755Z,36.71
2019-02-25T19:30:46.356Z,36.45
2019-02-25T19:33:19.291Z,36.49
2019-02-25T19:35:45.995Z,36.72
2019-02-25T19:38:17.617Z,37.98
2019-02-25T19:40:50.360Z,39.48
2019-02-25T19:43:18.238Z,40.76
2019-02-25T19:45:47.010Z,40.90
2019-02-25T19:48:15.785Z,41.15
2019-02-25T19:50:51.280Z,39.80
2019-02-25T19:53:19.445Z,40.42
2019-02-25T19:55:46.997Z,39.51
2019-02-25T19:58:16.082Z,38.70
2019-02-25T20:00:44.768Z,38.08
2019-02-25T20:03:13.711Z,37.97
2019-02-25T20:05:44.213Z,37.86
2019-02-25T20:08:13.787Z,37.56
2019-02-25T20:10:42.725Z,38.47
2019-02-25T20:13:11.498Z,38.70
2019-02-25T20:15:42.367Z,39.20
2019-02-25T20:18:11.802Z,39.76
2019-02-25T20:20:43.018Z,38.92
2019-02-25T20:23:12.094Z,39.01
2019-02-25T20:25:44.417Z,39.09
2019-02-25T20:28:11.771Z,39.02
2019-02-25T20:30:40.721Z,40.07
2019-02-25T20:33:10.875Z,40.77
2019-02-25T20:35:39.929Z,41.24
2019-02-25T20:38:08.633Z,42.36
2019-02-25T20:40:37.367Z,43.14
2019-02-25T20:43:06.038Z,43.51
2019-02-25T20:45:35.489Z,43.19
2019-02-25T20:48:04.842Z,42.08
2019-02-25T20:50:33.692Z,42.42
2019-02-25T20:53:05.779Z,42.26
2019-02-25T20:55:34.502Z,42.15
2019-02-25T20:58:04.069Z,41.90
2019-02-25T21:00:34.938Z,41.22
2019-02-25T21:03:03.398Z,41.41
2019-02-25T21:05:32.068Z,41.63
2019-02-25T21:08:00.989Z,41.56
2019-02-25T21:10:32.826Z,41.46
2019-02-25T21:13:02.241Z,41.22
2019-02-25T21:15:33.319Z,41.31
2019-02-25T21:18:04.680Z,41.97
2019-02-25T21:20:32.753Z,42.32
2019-02-25T21:23:05.298Z,42.56
2019-02-25T21:25:33.822Z,42.33
2019-02-25T21:28:04.889Z,42.43
2019-02-25T21:30:37.089Z,42.55
2019-02-25T21:33:03.944Z,42.65
2019-02-25T21:35:36.692Z,42.88
2019-02-25T21:38:03.293Z,42.32
2019-02-25T21:40:32.561Z,42.50
2019-02-25T21:43:01.613Z,42.72
2019-02-25T21:45:32.400Z,42.35
2019-02-25T21:48:02.612Z,41.77
2019-02-25T21:50:34.063Z,41.40
2019-02-25T21:53:04.850Z,42.61
2019-02-25T21:55:34.916Z,43.20
2019-02-25T21:58:05.006Z,44.09
2019-02-25T22:00:35.732Z,44.22
2019-02-25T22:03:06.269Z,43.88
2019-02-25T22:05:34.746Z,44.36
2019-02-25T22:08:04.776Z,44.89
2019-02-25T22:10:36.921Z,45.14
2019-02-25T22:13:08.729Z,44.14
2019-02-25T22:15:38.278Z,43.46
2019-02-25T22:18:08.602Z,42.81
2019-02-25T22:20:39.758Z,42.38
2019-02-25T22:23:08.032Z,41.65
2019-02-25T22:25:37.126Z,40.76
2019-02-25T22:28:07.574Z,40.74
2019-02-25T22:30:36.491Z,39.95
2019-02-25T22:33:07.874Z,39.62
2019-02-25T22:35:37.569Z,39.93
2019-02-25T22:38:06.460Z,40.28
2019-02-25T22:40:36.685Z,40.86
2019-02-25T22:43:06.217Z,41.91
2019-02-25T22:45:37.313Z,43.38
2019-02-25T22:48:05.602Z,44.42
2019-02-25T22:50:36.020Z,44.76
2019-02-25T22:53:06.753Z,44.72
2019-02-25T22:55:39.248Z,44.58
2019-02-25T22:58:10.461Z,44.89
2019-02-25T23:00:43.050Z,44.91
2019-02-25T23:03:15.293Z,45.42
2019-02-25T23:05:45.423Z,46.07
2019-02-25T23:08:15.448Z,45.01
2019-02-25T23:10:46.778Z,44.01
2019-02-25T23:13:14.801Z,45.64
2019-02-25T23:15:44.721Z,45.84
2019-02-25T23:18:16.615Z,45.50
2019-02-25T23:20:44.707Z,45.46
2019-02-25T23:23:13.683Z,45.76
2019-02-25T23:25:42.647Z,46.41
2019-02-25T23:28:11.313Z,45.71
2019-02-25T23:30:40.282Z,45.69
2019-02-25T23:33:11.798Z,45.77
2019-02-25T23:35:42.712Z,45.89
2019-02-25T23:38:10.633Z,46.29
2019-02-25T23:40:40.207Z,45.72
2019-02-25T23:43:11.914Z,45.97
2019-02-25T23:45:42.135Z,45.75
2019-02-25T23:48:11.892Z,45.72
2019-02-25T23:50:40.531Z,46.43
2019-02-25T23:53:09.537Z,47.20
2019-02-25T23:55:38.207Z,48.27
2019-02-25T23:58:10.199Z,48.81
